Time;durP1;ratioP1;P1;durP2;ratioP2;P2;SDS_P1;SDS_P2;PMS_P1;PMS_P2;Temp;Humidity;BMP_temperature;BMP_pressure;BME280_temperature;BME280_humidity;BME280_pressure;Samples;Min_cycle;Max_cycle;Signal;HPM_P1;HPM_P2
2023/03/30 00:00:45;;;;;;;16.75;3.60;;;18.00;99.90;;;;;;4982189;28;20417;-79
2023/03/30 00:03:12;;;;;;;16.35;2.78;;;18.10;99.90;;;;;;4991825;28;20057;-80
2023/03/30 00:05:41;;;;;;;18.08;3.95;;;18.10;99.90;;;;;;4989888;28;20097;-79
2023/03/30 00:08:08;;;;;;;17.52;3.13;;;18.00;99.90;;;;;;4987346;28;20046;-79
2023/03/30 00:10:37;;;;;;;13.15;3.38;;;18.00;99.90;;;;;;4978261;28;20078;-79
2023/03/30 00:13:04;;;;;;;13.48;4.05;;;18.00;99.90;;;;;;4991728;28;20055;-78
2023/03/30 00:15:31;;;;;;;16.90;3.25;;;18.00;99.90;;;;;;4986365;28;20054;-77
2023/03/30 00:17:58;;;;;;;20.65;3.45;;;18.00;99.90;;;;;;4985581;28;20046;-79
2023/03/30 00:20:24;;;;;;;17.20;3.13;;;17.90;99.90;;;;;;4989797;28;20054;-79
2023/03/30 00:22:51;;;;;;;18.10;2.42;;;17.90;99.90;;;;;;4982106;28;20058;-77
2023/03/30 00:25:18;;;;;;;11.23;2.70;;;17.90;99.90;;;;;;4983142;28;20050;-80
2023/03/30 00:27:45;;;;;;;17.33;3.85;;;17.90;99.90;;;;;;4992305;28;20067;-80
2023/03/30 00:30:14;;;;;;;14.63;3.63;;;18.00;99.90;;;;;;4989850;28;20482;-79
2023/03/30 00:32:42;;;;;;;13.20;3.15;;;18.00;99.90;;;;;;4987943;28;20090;-79
2023/03/30 00:35:11;;;;;;;16.20;3.15;;;17.90;99.90;;;;;;4995716;28;20101;-79
2023/03/30 00:37:38;;;;;;;13.88;2.80;;;17.90;99.90;;;;;;4995110;28;20050;-78
2023/03/30 00:40:07;;;;;;;12.70;2.88;;;17.90;99.90;;;;;;4996764;28;20133;-79
2023/03/30 00:42:35;;;;;;;15.57;4.03;;;17.90;99.90;;;;;;4993805;28;20154;-78
2023/03/30 00:45:23;;;;;;;12.50;3.42;;;18.00;99.90;;;;;;4981130;28;20070;-79
2023/03/30 00:48:22;;;;;;;15.93;4.30;;;18.00;99.90;;;;;;4985989;28;20134;-78
2023/03/30 00:50:51;;;;;;;18.20;3.88;;;18.00;99.90;;;;;;4983405;28;20057;-79
2023/03/30 00:53:20;;;;;;;18.90;3.40;;;18.00;99.90;;;;;;4988079;28;20563;-79
2023/03/30 00:55:49;;;;;;;22.92;3.78;;;18.00;99.90;;;;;;4988228;28;20117;-78
2023/03/30 00:58:18;;;;;;;17.60;4.25;;;18.00;99.90;;;;;;4994375;28;20454;-79
2023/03/30 01:00:48;;;;;;;11.52;3.00;;;18.00;99.90;;;;;;4989910;28;20057;-79
2023/03/30 01:03:23;;;;;;;17.05;3.20;;;17.90;99.90;;;;;;4990614;28;20057;-79
2023/03/30 01:05:51;;;;;;;28.50;4.47;;;17.90;99.90;;;;;;4984867;28;20054;-79
2023/03/30 01:08:19;;;;;;;15.85;3.60;;;17.80;99.90;;;;;;4983949;28;20114;-79
2023/03/30 01:10:46;;;;;;;16.92;3.50;;;17.70;99.90;;;;;;4985185;28;20129;-79
2023/03/30 01:13:14;;;;;;;16.20;2.88;;;17.70;99.90;;;;;;4988619;28;20054;-79
2023/03/30 01:16:01;;;;;;;15.07;2.67;;;17.60;99.90;;;;;;4987546;28;20058;-79
2023/03/30 01:18:58;;;;;;;10.00;2.53;;;17.60;99.90;;;;;;4991928;28;20057;-79
2023/03/30 01:21:31;;;;;;;16.15;3.10;;;17.50;99.90;;;;;;4984488;28;20569;-77
2023/03/30 01:24:52;;;;;;;18.33;3.20;;;17.50;99.90;;;;;;4988036;28;20069;-80
2023/03/30 01:27:56;;;;;;;14.95;3.63;;;17.40;99.90;;;;;;4951201;28;20545;-79
2023/03/30 01:30:47;;;;;;;15.13;3.30;;;17.40;99.90;;;;;;4980989;28;20050;-80
2023/03/30 01:33:36;;;;;;;18.23;3.70;;;17.30;99.90;;;;;;4985501;28;20055;-79
2023/03/30 01:36:27;;;;;;;15.15;3.85;;;17.30;99.90;;;;;;4985865;28;20430;-78
2023/03/30 01:39:12;;;;;;;10.90;3.30;;;17.30;99.90;;;;;;4990074;28;20430;-80
2023/03/30 01:41:58;;;;;;;17.05;3.00;;;17.30;99.90;;;;;;4993596;28;20525;-80
2023/03/30 01:44:42;;;;;;;14.15;3.15;;;17.30;99.90;;;;;;4986395;28;20046;-80
2023/03/30 01:47:22;;;;;;;15.80;2.42;;;17.40;99.90;;;;;;4991537;28;20054;-80
2023/03/30 01:50:23;;;;;;;17.17;3.10;;;17.40;99.90;;;;;;4994944;28;20055;-79
2023/03/30 01:53:12;;;;;;;20.45;3.83;;;17.40;99.90;;;;;;4993508;28;20470;-78
2023/03/30 01:55:48;;;;;;;17.23;3.33;;;17.40;99.90;;;;;;4985208;28;20082;-78
2023/03/30 01:58:36;;;;;;;15.57;3.30;;;17.50;99.90;;;;;;4992725;28;20043;-79
2023/03/30 02:01:05;;;;;;;16.40;4.18;;;17.40;99.90;;;;;;5004460;28;20057;-80
2023/03/30 02:03:37;;;;;;;15.30;3.55;;;17.40;99.90;;;;;;4982002;28;20050;-79
2023/03/30 02:06:20;;;;;;;18.05;3.78;;;17.40;99.90;;;;;;4988209;28;20082;-79
2023/03/30 02:08:49;;;;;;;20.23;3.58;;;17.40;99.90;;;;;;4980997;28;20056;-79
2023/03/30 02:11:16;;;;;;;18.15;3.70;;;17.40;99.90;;;;;;4986753;28;20134;-79
2023/03/30 02:13:44;;;;;;;17.45;3.33;;;17.40;99.90;;;;;;4986160;28;20579;-79
2023/03/30 02:16:23;;;;;;;13.35;3.60;;;17.40;99.90;;;;;;4994504;28;20064;-79
2023/03/30 02:18:50;;;;;;;20.23;3.75;;;17.40;99.90;;;;;;4979132;28;20097;-78
2023/03/30 02:21:17;;;;;;;14.93;3.72;;;17.40;99.90;;;;;;4993938;28;20043;-79
2023/03/30 02:23:45;;;;;;;16.58;3.33;;;17.40;99.90;;;;;;4985641;28;20131;-80
2023/03/30 02:26:12;;;;;;;21.70;4.35;;;17.40;99.90;;;;;;4987981;28;20070;-79
2023/03/30 02:28:39;;;;;;;16.63;4.63;;;17.40;99.90;;;;;;4984303;28;20137;-78
2023/03/30 02:31:13;;;;;;;19.38;4.38;;;17.40;99.90;;;;;;4984900;28;20058;-80
2023/03/30 02:33:39;;;;;;;16.65;3.13;;;17.40;99.90;;;;;;4981333;28;20050;-79
2023/03/30 02:36:12;;;;;;;17.08;2.90;;;17.40;99.90;;;;;;4988222;28;20046;-79
2023/03/30 02:39:09;;;;;;;14.10;2.80;;;17.40;99.90;;;;;;4987427;28;20125;-79
2023/03/30 02:41:53;;;;;;;20.38;4.45;;;17.50;99.90;;;;;;4980998;28;20526;-80
2023/03/30 02:44:38;;;;;;;16.10;4.13;;;17.50;99.90;;;;;;4987190;28;20653;-79
2023/03/30 02:47:26;;;;;;;16.67;3.58;;;17.50;99.90;;;;;;4985263;28;20433;-79
2023/03/30 02:50:03;;;;;;;15.80;3.65;;;17.50;99.90;;;;;;4987320;28;20050;-79
2023/03/30 02:52:48;;;;;;;16.05;3.63;;;17.60;99.90;;;;;;4991183;28;20042;-79
2023/03/30 02:55:40;;;;;;;21.02;3.35;;;17.60;99.90;;;;;;4982851;28;20047;-79
2023/03/30 02:58:16;;;;;;;17.55;2.92;;;17.70;99.90;;;;;;4969948;28;20050;-78
2023/03/30 03:00:55;;;;;;;14.32;3.28;;;17.80;99.90;;;;;;4987677;28;20057;-80
2023/03/30 03:03:27;;;;;;;17.60;3.50;;;17.80;99.90;;;;;;4987559;28;20046;-80
2023/03/30 03:05:55;;;;;;;25.52;3.88;;;17.80;99.90;;;;;;4978215;28;20050;-79
2023/03/30 03:08:23;;;;;;;16.35;3.35;;;17.90;99.90;;;;;;4993333;28;20100;-80
2023/03/30 03:10:55;;;;;;;19.35;4.30;;;17.90;99.90;;;;;;4983742;28;20134;-82
2023/03/30 03:13:23;;;;;;;18.98;4.20;;;17.90;99.90;;;;;;4987043;28;20617;-80
2023/03/30 03:15:54;;;;;;;16.70;3.35;;;18.00;99.90;;;;;;4985042;28;20057;-79
2023/03/30 03:18:22;;;;;;;17.30;3.65;;;18.00;99.90;;;;;;4983589;28;20602;-78
2023/03/30 03:20:49;;;;;;;18.33;3.17;;;18.00;99.90;;;;;;4980640;28;20423;-80
2023/03/30 03:23:16;;;;;;;16.40;3.00;;;18.10;99.90;;;;;;4986733;28;20072;-78
2023/03/30 03:25:43;;;;;;;15.15;2.78;;;18.00;99.90;;;;;;4984398;28;20057;-78
2023/03/30 03:28:09;;;;;;;13.70;3.00;;;18.00;99.90;;;;;;4983418;28;20081;-78
2023/03/30 03:30:36;;;;;;;17.45;4.68;;;18.00;99.90;;;;;;4980121;28;20053;-79
2023/03/30 03:33:03;;;;;;;21.98;3.83;;;18.00;99.90;;;;;;4986551;28;20466;-77
2023/03/30 03:35:30;;;;;;;17.02;3.33;;;18.00;99.90;;;;;;4985844;28;20090;-78
2023/03/30 03:37:57;;;;;;;19.92;3.13;;;18.00;99.90;;;;;;4982758;28;20046;-79
2023/03/30 03:40:23;;;;;;;22.30;4.20;;;18.00;99.90;;;;;;4987395;28;20053;-77
2023/03/30 03:42:50;;;;;;;16.33;3.00;;;17.90;99.90;;;;;;4982233;28;20634;-80
2023/03/30 03:45:17;;;;;;;19.83;4.00;;;17.90;99.90;;;;;;4984372;28;20051;-80
2023/03/30 03:47:43;;;;;;;21.73;4.00;;;17.80;99.90;;;;;;4985391;28;20085;-79
2023/03/30 03:50:11;;;;;;;14.80;3.40;;;17.80;99.90;;;;;;4987830;28;20120;-77
2023/03/30 03:52:37;;;;;;;18.55;4.78;;;17.80;99.90;;;;;;4979323;28;20511;-78
2023/03/30 03:55:05;;;;;;;21.95;4.57;;;17.70;99.90;;;;;;4983481;28;20146;-79
2023/03/30 03:57:31;;;;;;;18.48;3.60;;;17.70;99.90;;;;;;4985545;28;20402;-79
2023/03/30 03:59:58;;;;;;;21.65;3.55;;;17.60;99.90;;;;;;4984948;28;20047;-79
2023/03/30 04:02:26;;;;;;;13.98;3.55;;;17.60;99.90;;;;;;4984818;28;20038;-79
2023/03/30 04:04:54;;;;;;;26.77;4.72;;;17.70;99.90;;;;;;4988838;28;20051;-79
2023/03/30 04:07:24;;;;;;;20.15;3.63;;;17.70;99.90;;;;;;4985195;28;20510;-80
2023/03/30 04:09:50;;;;;;;16.20;3.08;;;17.70;99.90;;;;;;4989920;28;20073;-79
2023/03/30 04:12:19;;;;;;;16.75;4.05;;;17.70;99.90;;;;;;4992624;28;20065;-78
2023/03/30 04:14:45;;;;;;;16.27;2.83;;;17.80;99.90;;;;;;4988131;28;20074;-78
2023/03/30 04:17:13;;;;;;;19.80;3.33;;;17.80;99.90;;;;;;4982399;28;20055;-79
2023/03/30 04:19:40;;;;;;;16.48;3.63;;;17.80;99.90;;;;;;4991450;28;20411;-79
2023/03/30 04:22:07;;;;;;;21.25;3.78;;;17.80;99.90;;;;;;4988540;28;20129;-79
2023/03/30 04:24:34;;;;;;;12.98;2.97;;;17.80;99.90;;;;;;4988476;28;20054;-79
2023/03/30 04:27:01;;;;;;;11.82;3.30;;;17.80;99.90;;;;;;4987944;28;20046;-79
2023/03/30 04:29:28;;;;;;;17.80;3.05;;;17.80;99.90;;;;;;4986631;28;20050;-79
2023/03/30 04:31:55;;;;;;;16.15;3.38;;;17.80;99.90;;;;;;4984486;28;20203;-79
2023/03/30 04:34:22;;;;;;;21.17;4.07;;;17.80;99.90;;;;;;4990261;28;20514;-79
2023/03/30 04:36:49;;;;;;;13.00;3.47;;;17.90;99.90;;;;;;4991444;28;20101;-80
2023/03/30 04:39:17;;;;;;;13.52;3.20;;;17.90;99.90;;;;;;4990357;28;20407;-80
2023/03/30 04:41:44;;;;;;;20.67;3.88;;;17.90;99.90;;;;;;4992176;28;20425;-79
2023/03/30 04:44:11;;;;;;;18.55;3.33;;;17.90;99.90;;;;;;4989854;28;20049;-79
2023/03/30 04:46:38;;;;;;;20.50;3.45;;;17.80;99.90;;;;;;4986966;28;20126;-80
2023/03/30 04:49:05;;;;;;;14.80;3.65;;;17.80;99.90;;;;;;4987095;28;20054;-79
2023/03/30 04:51:32;;;;;;;13.15;3.30;;;17.80;99.90;;;;;;4989174;28;20061;-80
2023/03/30 04:53:58;;;;;;;15.55;3.35;;;17.80;99.90;;;;;;4993186;28;20057;-80
2023/03/30 04:56:26;;;;;;;18.35;3.40;;;17.80;99.90;;;;;;4988510;28;20046;-79
2023/03/30 04:58:53;;;;;;;19.17;4.45;;;17.70;99.90;;;;;;4987788;28;20047;-78
2023/03/30 05:01:20;;;;;;;16.70;3.05;;;17.70;99.90;;;;;;4991042;28;20047;-79
2023/03/30 05:03:47;;;;;;;17.90;3.03;;;17.70;99.90;;;;;;4986982;28;20057;-78
2023/03/30 05:06:13;;;;;;;16.55;3.40;;;17.70;99.90;;;;;;4986140;28;20134;-79
2023/03/30 05:08:40;;;;;;;20.13;4.05;;;17.60;99.90;;;;;;4995600;28;20050;-79
2023/03/30 05:11:07;;;;;;;14.68;3.22;;;17.60;99.90;;;;;;4990435;28;20056;-80
2023/03/30 05:13:34;;;;;;;20.05;3.47;;;17.50;99.90;;;;;;4984167;28;20134;-79
2023/03/30 05:16:01;;;;;;;27.15;4.30;;;17.50;99.90;;;;;;4983758;28;20590;-79
2023/03/30 05:18:27;;;;;;;16.80;3.22;;;17.50;99.90;;;;;;4985465;28;20054;-79
2023/03/30 05:20:58;;;;;;;10.20;2.80;;;17.50;99.90;;;;;;4993206;28;20117;-80
2023/03/30 05:23:25;;;;;;;17.38;3.45;;;17.50;99.90;;;;;;5003313;28;20046;-78
2023/03/30 05:25:53;;;;;;;14.82;3.35;;;17.50;99.90;;;;;;4987466;28;20042;-79
2023/03/30 05:28:21;;;;;;;22.23;3.75;;;17.40;99.90;;;;;;4981358;28;20694;-79
2023/03/30 05:30:52;;;;;;;18.15;4.18;;;17.40;99.90;;;;;;4989271;28;20478;-79
2023/03/30 05:33:20;;;;;;;22.77;3.67;;;17.40;99.90;;;;;;4988604;28;20046;-78
2023/03/30 05:35:47;;;;;;;17.17;3.35;;;17.40;99.90;;;;;;4982724;28;20055;-79
2023/03/30 05:38:14;;;;;;;19.25;3.85;;;17.30;99.90;;;;;;4985304;28;20050;-79
2023/03/30 05:40:40;;;;;;;17.70;4.97;;;17.30;99.90;;;;;;4987791;28;20430;-78
2023/03/30 05:43:08;;;;;;;14.85;3.25;;;17.30;99.90;;;;;;4991589;28;20101;-79
2023/03/30 05:45:35;;;;;;;20.58;3.95;;;17.20;99.90;;;;;;4986619;28;20466;-80
2023/03/30 05:48:02;;;;;;;18.33;3.80;;;17.20;99.90;;;;;;4992944;28;20577;-80
2023/03/30 05:50:28;;;;;;;18.73;3.70;;;17.10;99.90;;;;;;4983571;28;20055;-79
2023/03/30 05:52:55;;;;;;;15.35;3.10;;;17.10;99.90;;;;;;4986867;28;20051;-79
2023/03/30 05:55:22;;;;;;;11.60;2.88;;;17.10;99.90;;;;;;4989393;28;20054;-80
2023/03/30 05:57:49;;;;;;;16.00;3.63;;;17.10;99.90;;;;;;4987471;28;20104;-80
2023/03/30 06:00:17;;;;;;;23.42;3.88;;;17.00;99.90;;;;;;4983022;28;20057;-79
2023/03/30 06:02:44;;;;;;;15.82;3.70;;;17.00;99.90;;;;;;4984681;28;20046;-80
2023/03/30 06:05:11;;;;;;;15.05;2.67;;;16.90;99.90;;;;;;4982416;28;20042;-78
2023/03/30 06:07:38;;;;;;;17.27;3.50;;;16.90;99.90;;;;;;4988200;28;20046;-79
2023/03/30 06:10:06;;;;;;;18.67;2.92;;;16.90;99.90;;;;;;4987430;28;20066;-78
2023/03/30 06:12:33;;;;;;;20.15;4.13;;;16.80;99.90;;;;;;4989010;28;20093;-80
2023/03/30 06:15:01;;;;;;;19.02;3.75;;;16.80;99.90;;;;;;4979888;28;20054;-80
2023/03/30 06:17:29;;;;;;;18.35;3.45;;;16.80;99.90;;;;;;4991068;28;20422;-79
2023/03/30 06:19:55;;;;;;;12.73;4.10;;;16.80;99.90;;;;;;4987831;28;20051;-78
2023/03/30 06:22:22;;;;;;;12.07;4.65;;;16.80;99.90;;;;;;4986537;28;20426;-80
2023/03/30 06:24:49;;;;;;;18.85;3.10;;;16.70;99.90;;;;;;4990888;28;20047;-79
2023/03/30 06:27:16;;;;;;;11.18;2.60;;;16.70;99.90;;;;;;4984855;28;20571;-80
2023/03/30 06:29:44;;;;;;;13.00;3.67;;;16.70;99.90;;;;;;4986053;28;20062;-80
2023/03/30 06:32:10;;;;;;;14.00;2.65;;;16.70;99.90;;;;;;4987134;28;20046;-80
2023/03/30 06:34:37;;;;;;;5.95;2.20;;;16.60;99.90;;;;;;4989281;28;20528;-80
2023/03/30 06:37:06;;;;;;;7.43;2.60;;;16.60;99.90;;;;;;4982521;28;20047;-80
2023/03/30 06:39:36;;;;;;;10.27;2.75;;;16.60;99.90;;;;;;4983363;28;20054;-81
2023/03/30 06:42:04;;;;;;;12.13;2.80;;;16.60;99.90;;;;;;4989301;28;20541;-80
2023/03/30 06:44:32;;;;;;;9.75;2.50;;;16.60;99.90;;;;;;4987575;28;20054;-80
2023/03/30 06:47:00;;;;;;;10.20;2.40;;;16.60;99.90;;;;;;4990682;28;20137;-79
2023/03/30 06:49:27;;;;;;;9.60;2.58;;;16.50;99.90;;;;;;4982107;28;20097;-80
2023/03/30 06:51:54;;;;;;;14.10;2.55;;;16.50;99.90;;;;;;4987012;28;20046;-80
2023/03/30 06:54:20;;;;;;;7.93;2.15;;;16.50;99.90;;;;;;4988005;28;20425;-78
2023/03/30 06:56:48;;;;;;;14.82;2.83;;;16.40;99.90;;;;;;4988836;28;20048;-81
2023/03/30 06:59:15;;;;;;;8.90;2.13;;;16.40;99.90;;;;;;4985867;28;20039;-80
2023/03/30 07:01:43;;;;;;;11.52;2.70;;;16.40;99.90;;;;;;4981420;28;20043;-81
2023/03/30 07:04:10;;;;;;;10.05;2.45;;;16.40;99.90;;;;;;4984986;28;20129;-80
2023/03/30 07:06:36;;;;;;;10.90;2.75;;;16.30;99.90;;;;;;4990583;28;20042;-78
2023/03/30 07:09:04;;;;;;;14.73;2.70;;;16.30;99.90;;;;;;4986473;28;20051;-80
2023/03/30 07:11:31;;;;;;;11.80;3.47;;;16.30;99.90;;;;;;4997214;28;20058;-78
2023/03/30 07:14:00;;;;;;;13.27;2.58;;;16.30;99.90;;;;;;4987235;28;20150;-80
2023/03/30 07:16:27;;;;;;;11.43;3.58;;;16.30;99.90;;;;;;4984609;28;20047;-80
2023/03/30 07:18:53;;;;;;;14.32;2.35;;;16.30;99.90;;;;;;4984368;28;20058;-80
2023/03/30 07:21:20;;;;;;;9.63;2.13;;;16.30;99.90;;;;;;4984281;28;20043;-80
2023/03/30 07:23:47;;;;;;;12.23;3.42;;;16.30;99.90;;;;;;4985804;28;20077;-80
2023/03/30 07:26:13;;;;;;;11.93;3.53;;;16.30;99.90;;;;;;4979002;28;20060;-80
2023/03/30 07:28:40;;;;;;;10.63;2.75;;;16.20;99.90;;;;;;4989083;28;20046;-79
2023/03/30 07:31:09;;;;;;;7.70;2.55;;;16.20;99.90;;;;;;4989800;28;20134;-79
2023/03/30 07:33:36;;;;;;;12.18;3.38;;;16.20;99.90;;;;;;4986930;28;20043;-80
2023/03/30 07:36:04;;;;;;;6.50;3.08;;;16.10;99.90;;;;;;4977387;28;20090;-79
2023/03/30 07:38:32;;;;;;;13.95;4.10;;;16.00;99.90;;;;;;4988522;28;20047;-79
2023/03/30 07:40:59;;;;;;;8.90;2.88;;;16.00;99.90;;;;;;4989300;28;20042;-80
2023/03/30 07:43:27;;;;;;;12.98;3.35;;;16.00;99.90;;;;;;4986320;28;20077;-79
2023/03/30 07:45:53;;;;;;;11.07;3.47;;;16.00;99.90;;;;;;4984611;28;20138;-79
2023/03/30 07:48:20;;;;;;;10.57;2.70;;;15.90;99.90;;;;;;4981300;28;20073;-78
2023/03/30 07:50:47;;;;;;;11.50;3.80;;;15.90;99.90;;;;;;4981359;28;20046;-79
2023/03/30 07:53:13;;;;;;;9.18;2.78;;;15.90;99.90;;;;;;4985692;28;20453;-80
2023/03/30 07:55:41;;;;;;;13.27;3.00;;;15.80;99.90;;;;;;4986396;28;20050;-80
2023/03/30 07:58:07;;;;;;;12.80;3.20;;;15.80;99.90;;;;;;4984724;28;20149;-80
2023/03/30 08:00:34;;;;;;;10.13;3.10;;;15.80;99.90;;;;;;4985249;28;20054;-79
2023/03/30 08:03:01;;;;;;;6.32;3.03;;;15.70;99.90;;;;;;4986923;28;20421;-80
2023/03/30 08:05:28;;;;;;;13.05;3.40;;;15.70;99.90;;;;;;4988917;28;20537;-80
2023/03/30 08:07:54;;;;;;;11.70;3.50;;;15.70;99.90;;;;;;4986610;28;20088;-79
2023/03/30 08:10:21;;;;;;;14.77;3.33;;;15.70;99.90;;;;;;4988572;28;20051;-79
2023/03/30 08:12:48;;;;;;;9.95;3.38;;;15.60;99.90;;;;;;4981569;28;20050;-79
2023/03/30 08:15:14;;;;;;;8.82;3.45;;;15.60;99.90;;;;;;4985314;28;20047;-79
2023/03/30 08:17:41;;;;;;;9.43;4.40;;;15.60;99.90;;;;;;4989570;28;20056;-79
2023/03/30 08:20:10;;;;;;;9.23;3.00;;;15.60;99.90;;;;;;4984771;28;20043;-79
2023/03/30 08:22:37;;;;;;;12.25;3.67;;;15.60;99.90;;;;;;4983596;28;20267;-79
2023/03/30 08:25:04;;;;;;;14.00;3.95;;;15.60;99.90;;;;;;4987741;28;20410;-79
2023/03/30 08:27:31;;;;;;;10.77;4.05;;;15.50;99.90;;;;;;4983759;28;20050;-77
2023/03/30 08:29:57;;;;;;;8.48;4.07;;;15.50;99.90;;;;;;4988745;28;20065;-80
2023/03/30 08:32:25;;;;;;;9.80;3.03;;;15.50;99.90;;;;;;4991193;28;20517;-79
2023/03/30 08:34:53;;;;;;;9.98;3.08;;;15.50;99.90;;;;;;4983399;28;20050;-78
2023/03/30 08:37:20;;;;;;;11.70;3.78;;;15.50;99.90;;;;;;4986767;28;20129;-80
2023/03/30 08:39:47;;;;;;;10.20;3.50;;;15.50;99.90;;;;;;4982082;28;20053;-79
2023/03/30 08:42:48;;;;;;;9.38;3.55;;;15.50;99.90;;;;;;4985233;28;20070;-79
2023/03/30 08:45:15;;;;;;;13.38;4.03;;;15.40;99.90;;;;;;5001424;28;20085;-79
2023/03/30 08:47:47;;;;;;;8.10;3.60;;;15.30;99.90;;;;;;4980335;28;20042;-79
2023/03/30 08:50:34;;;;;;;15.02;5.70;;;15.30;99.90;;;;;;4984454;28;20051;-79
2023/03/30 08:53:03;;;;;;;8.13;3.65;;;15.30;99.90;;;;;;5004566;28;20415;-80
2023/03/30 08:55:45;;;;;;;10.65;3.67;;;15.30;99.90;;;;;;4986165;28;20081;-79
2023/03/30 08:58:18;;;;;;;12.80;4.50;;;15.20;99.90;;;;;;4991161;28;20054;-78
2023/03/30 09:01:17;;;;;;;11.32;3.90;;;15.20;99.90;;;;;;4984307;28;20038;-79
2023/03/30 09:04:02;;;;;;;9.20;3.58;;;15.20;99.90;;;;;;4993446;28;20042;-79
2023/03/30 09:06:40;;;;;;;9.88;3.60;;;15.20;99.90;;;;;;4990680;28;20043;-79
2023/03/30 09:09:12;;;;;;;9.10;3.30;;;15.20;99.90;;;;;;4985156;28;20046;-79
2023/03/30 09:11:39;;;;;;;11.27;3.15;;;15.20;99.90;;;;;;4985030;28;20086;-79
2023/03/30 09:14:11;;;;;;;14.52;4.10;;;15.10;99.90;;;;;;4988838;28;20043;-81
2023/03/30 09:16:47;;;;;;;11.70;3.17;;;15.20;99.90;;;;;;4992049;28;20505;-80
2023/03/30 09:19:22;;;;;;;11.32;3.15;;;15.20;99.90;;;;;;4986801;28;20679;-79
2023/03/30 09:21:52;;;;;;;10.30;3.00;;;15.20;99.90;;;;;;4986599;28;20053;-80
2023/03/30 09:24:24;;;;;;;15.20;3.28;;;15.20;99.90;;;;;;4988583;28;20047;-80
2023/03/30 09:27:08;;;;;;;11.52;3.22;;;15.20;99.90;;;;;;4984583;28;20122;-79
2023/03/30 09:29:43;;;;;;;8.05;3.20;;;15.20;99.90;;;;;;4991087;28;20059;-78
2023/03/30 09:32:35;;;;;;;10.20;3.13;;;15.20;99.90;;;;;;4986647;28;20400;-79
2023/03/30 09:35:09;;;;;;;11.77;3.47;;;15.30;99.90;;;;;;4982487;28;20124;-79
2023/03/30 09:37:36;;;;;;;11.63;3.05;;;15.30;99.90;;;;;;4989574;28;20057;-79
2023/03/30 09:40:25;;;;;;;12.38;2.60;;;15.30;99.90;;;;;;4991539;28;20050;-80
2023/03/30 09:42:59;;;;;;;8.13;3.05;;;15.30;99.90;;;;;;5005390;28;20985;-80
2023/03/30 09:45:30;;;;;;;8.63;2.95;;;15.40;99.90;;;;;;4983957;28;20526;-78
2023/03/30 09:48:04;;;;;;;10.70;2.92;;;15.40;99.90;;;;;;4986977;28;20042;-81
2023/03/30 09:50:43;;;;;;;9.05;3.03;;;15.40;99.90;;;;;;4988294;28;20058;-80
2023/03/30 09:53:23;;;;;;;10.70;3.63;;;15.50;99.90;;;;;;4988982;28;20062;-81
2023/03/30 09:55:54;;;;;;;10.77;3.35;;;15.50;99.90;;;;;;4987557;28;20141;-80
2023/03/30 09:58:32;;;;;;;12.43;3.28;;;15.60;99.90;;;;;;4995451;28;20085;-80
2023/03/30 10:01:13;;;;;;;10.82;2.83;;;15.70;99.90;;;;;;4991080;28;20045;-82
2023/03/30 10:03:42;;;;;;;9.65;3.38;;;15.70;99.90;;;;;;4991706;28;20046;-80
2023/03/30 10:06:12;;;;;;;10.43;2.88;;;15.80;99.90;;;;;;4990687;28;20070;-79
2023/03/30 10:08:51;;;;;;;13.43;3.33;;;15.90;99.90;;;;;;4990807;28;20450;-80
2023/03/30 10:11:35;;;;;;;11.82;2.72;;;15.90;99.90;;;;;;4989150;28;20289;-81
2023/03/30 10:14:04;;;;;;;12.15;3.45;;;16.00;99.90;;;;;;4988024;28;20039;-81
2023/03/30 10:16:33;;;;;;;8.57;2.75;;;16.10;99.90;;;;;;4985982;28;20086;-80
2023/03/30 10:19:03;;;;;;;14.35;3.08;;;16.30;99.90;;;;;;4985847;28;20522;-80
2023/03/30 10:21:38;;;;;;;11.20;2.50;;;16.40;99.90;;;;;;4989228;28;20053;-80
2023/03/30 10:24:27;;;;;;;7.13;2.40;;;16.40;99.90;;;;;;4986105;28;20043;-80
2023/03/30 10:27:08;;;;;;;6.63;2.50;;;16.50;99.90;;;;;;5003445;28;20601;-81
2023/03/30 10:29:35;;;;;;;7.60;2.55;;;16.50;99.90;;;;;;4987722;28;20054;-80
2023/03/30 10:32:38;;;;;;;9.15;2.90;;;16.40;99.90;;;;;;4992793;28;20050;-80
2023/03/30 10:35:09;;;;;;;9.25;3.05;;;16.50;99.90;;;;;;4980332;28;20047;-81
2023/03/30 10:37:43;;;;;;;;;;;16.50;99.90;;;;;;4988496;28;20494;-80
2023/03/30 10:40:15;;;;;;;10.25;3.40;;;16.50;99.90;;;;;;5019584;22;19922;-75
2023/03/30 10:42:44;;;;;;;10.25;3.55;;;16.40;99.90;;;;;;5002315;28;20145;-75
2023/03/30 10:45:26;;;;;;;12.68;3.55;;;16.30;99.90;;;;;;5000109;28;20060;-76
2023/03/30 10:47:53;;;;;;;14.63;3.25;;;16.30;99.90;;;;;;5003834;28;20128;-76
2023/03/30 10:50:23;;;;;;;8.95;2.60;;;16.20;99.90;;;;;;4998379;28;20395;-76
2023/03/30 10:53:10;;;;;;;9.85;3.13;;;16.20;99.90;;;;;;4995558;28;20046;-75
2023/03/30 10:56:02;;;;;;;9.68;3.17;;;16.10;99.90;;;;;;5003632;28;20054;-75
2023/03/30 10:58:39;;;;;;;9.52;2.75;;;16.00;99.90;;;;;;4989789;28;20554;-74
2023/03/30 11:01:20;;;;;;;11.07;3.08;;;16.00;99.90;;;;;;4996316;28;20478;-75
2023/03/30 11:03:57;;;;;;;9.90;3.42;;;15.90;99.90;;;;;;4997324;28;20042;-74
2023/03/30 11:06:38;;;;;;;10.98;3.47;;;15.80;99.90;;;;;;4994061;28;20046;-75
2023/03/30 11:09:13;;;;;;;7.80;3.38;;;15.70;99.90;;;;;;4996230;28;20045;-75
2023/03/30 11:11:48;;;;;;;13.25;3.25;;;15.60;99.90;;;;;;4998340;28;20126;-75
2023/03/30 11:14:54;;;;;;;11.55;3.17;;;15.60;99.90;;;;;;4995573;28;20050;-75
2023/03/30 11:17:27;;;;;;;11.75;2.83;;;15.50;99.90;;;;;;4996779;28;20504;-75
2023/03/30 11:20:00;;;;;;;11.02;3.25;;;15.50;99.90;;;;;;4999308;28;20050;-76
2023/03/30 11:22:45;;;;;;;10.43;3.38;;;15.40;99.90;;;;;;4995624;28;20437;-77
2023/03/30 11:25:20;;;;;;;7.13;2.53;;;15.40;99.90;;;;;;4997155;28;20068;-76
2023/03/30 11:28:13;;;;;;;14.57;4.20;;;15.40;99.90;;;;;;4994437;28;20052;-76
2023/03/30 11:30:41;;;;;;;10.27;3.08;;;15.50;99.90;;;;;;4969962;28;20520;-76
2023/03/30 11:33:40;;;;;;;11.77;4.05;;;15.50;99.90;;;;;;4996657;28;20494;-76
2023/03/30 11:36:19;;;;;;;9.68;2.85;;;15.60;99.90;;;;;;4990525;28;20045;-76
2023/03/30 11:38:57;;;;;;;10.68;3.03;;;15.70;99.90;;;;;;4994867;28;20049;-76
2023/03/30 11:41:35;;;;;;;12.75;3.20;;;15.80;99.90;;;;;;5001851;28;20078;-76
2023/03/30 11:44:02;;;;;;;9.32;2.80;;;15.90;99.90;;;;;;4997050;28;20065;-76
2023/03/30 11:47:00;;;;;;;8.18;2.50;;;16.00;99.90;;;;;;4993991;28;20045;-76
2023/03/30 11:49:38;;;;;;;7.97;2.72;;;16.00;99.90;;;;;;4995951;28;20541;-76
2023/03/30 11:52:20;;;;;;;8.75;2.45;;;16.00;99.90;;;;;;4998653;28;20506;-76
2023/03/30 11:55:34;;;;;;;11.40;2.30;;;16.00;99.90;;;;;;4996174;28;20054;-76
2023/03/30 11:58:10;;;;;;;10.48;2.25;;;16.10;99.90;;;;;;4960859;28;20065;-77
2023/03/30 12:01:01;;;;;;;7.90;2.35;;;16.20;99.90;;;;;;4990946;28;20054;-77
2023/03/30 12:03:43;;;;;;;5.55;1.88;;;16.30;99.90;;;;;;4999946;28;20057;-76
2023/03/30 12:06:27;;;;;;;9.88;2.20;;;16.40;99.90;;;;;;4999424;28;20057;-76
2023/03/30 12:09:18;;;;;;;8.73;2.00;;;16.50;99.90;;;;;;4996049;28;20093;-76
2023/03/30 12:12:14;;;;;;;7.32;2.25;;;16.50;99.90;;;;;;4995703;28;20085;-77
2023/03/30 12:15:04;;;;;;;6.60;2.30;;;16.50;99.90;;;;;;5010814;28;20057;-77
2023/03/30 12:17:50;;;;;;;6.38;2.00;;;16.50;99.90;;;;;;4998460;28;20136;-77
2023/03/30 12:20:23;;;;;;;6.15;2.25;;;16.40;99.90;;;;;;4989848;28;20065;-77
2023/03/30 12:23:01;;;;;;;5.43;1.88;;;16.20;99.90;;;;;;5000957;28;20049;-77
2023/03/30 12:26:07;;;;;;;9.98;2.10;;;16.10;99.90;;;;;;5006784;28;20046;-76
2023/03/30 12:28:46;;;;;;;6.75;1.98;;;16.00;99.90;;;;;;5002989;28;20506;-76
2023/03/30 12:31:16;;;;;;;3.67;1.77;;;16.10;99.90;;;;;;5004045;28;20060;-76
2023/03/30 12:33:50;;;;;;;5.57;1.80;;;16.20;99.90;;;;;;5003372;28;20430;-76
2023/03/30 12:36:29;;;;;;;8.15;2.17;;;16.20;99.90;;;;;;5000030;28;20060;-76
2023/03/30 12:39:01;;;;;;;6.43;2.05;;;16.30;99.90;;;;;;5009052;28;20050;-76
2023/03/30 12:41:38;;;;;;;8.60;2.10;;;16.40;99.90;;;;;;5004557;28;20141;-76
2023/03/30 12:44:37;;;;;;;7.22;2.17;;;16.50;99.90;;;;;;4999512;28;20076;-76
2023/03/30 12:47:38;;;;;;;5.43;1.40;;;16.60;99.90;;;;;;5000985;28;20042;-76
2023/03/30 12:50:11;;;;;;;6.30;1.48;;;16.60;99.90;;;;;;4990515;28;20164;-75
2023/03/30 12:53:02;;;;;;;4.95;1.40;;;16.60;99.90;;;;;;5006847;28;20390;-75
2023/03/30 12:55:52;;;;;;;6.40;1.60;;;16.70;99.90;;;;;;5000202;28;20077;-75
2023/03/30 12:58:59;;;;;;;4.75;1.48;;;16.70;99.90;;;;;;4999731;28;20568;-76
2023/03/30 13:01:34;;;;;;;4.07;1.25;;;16.70;99.90;;;;;;5001555;28;20042;-75
2023/03/30 13:04:20;;;;;;;7.55;1.75;;;16.70;99.90;;;;;;5000924;28;20038;-76
2023/03/30 13:06:56;;;;;;;6.65;1.50;;;16.70;99.90;;;;;;5000735;28;20101;-76
2023/03/30 13:09:26;;;;;;;6.63;1.90;;;16.70;99.90;;;;;;5002001;28;20096;-76
2023/03/30 13:11:53;;;;;;;7.07;1.52;;;16.70;99.90;;;;;;5000356;28;20128;-75